Pagina principale
METAR-TAF:

METAR-TAF

Aeroporti :

Maseru, Lesotho

latitudine: 29-27S, longitudine: 027-33E, altezza: 1631 m

Osservazione

Il bollettino è stato emesso 5 ore e 52 minuti fa, alle 07:00 UTC
Vento calmo
Temperature 6°C
Umidità 52%
Pressione 1030 hPa
Visibilità 10 km o più

METAR: FXMM 170700Z 00000KT 9999 NSC 06/M03 Q1030 NOSIG

Ora: 14:52 (12:52 UTC)


TAF: mancante

Osservazioni e previsioni meteorologiche di più di 4000 aeroporti (messaggi METAR e TAF).

Le stazioni disponibili sono rappresentate dai dischi gialli e rossi sulla carta.

Puntare il mouse per vedere il nome della stazione.

Clicca sopra per visualizzare le osservazioni e previsioni meteorologiche.

Per cambiare la mappa : fare clic sui pulsanti verdi con una croce nera per ingrandire, il pulsante verde con un trattino per diminuire, o sulla freccia verde per le mappe adiacenti.


METAR-TAF: